Time;durP1;ratioP1;P1;durP2;ratioP2;P2;SDS_P1;SDS_P2;PMS_P1;PMS_P2;Temp;Humidity;BMP_temperature;BMP_pressure;BME280_temperature;BME280_humidity;BME280_pressure;Samples;Min_cycle;Max_cycle;Signal;HPM_P1;HPM_P2
2021/08/27 00:02:18;;;;;;;6.47;2.45;;;13.10;91.10;;;;;;5109118;28;20376;-75
2021/08/27 00:04:44;;;;;;;7.60;2.40;;;13.10;91.10;;;;;;5112872;28;20034;-77
2021/08/27 00:07:10;;;;;;;8.55;1.63;;;13.10;91.10;;;;;;5093999;28;20020;-77
2021/08/27 00:09:35;;;;;;;7.30;2.35;;;13.20;91.00;;;;;;5097793;28;20514;-76
2021/08/27 00:12:02;;;;;;;7.78;2.17;;;13.20;90.90;;;;;;5108867;28;20032;-77
2021/08/27 00:14:28;;;;;;;6.45;1.90;;;13.30;90.90;;;;;;5086134;28;20031;-76
2021/08/27 00:16:54;;;;;;;7.03;1.77;;;13.40;90.80;;;;;;5094133;28;20090;-77
2021/08/27 00:19:21;;;;;;;4.68;1.50;;;13.50;90.80;;;;;;5105042;28;20030;-77
2021/08/27 00:21:46;;;;;;;6.05;1.73;;;13.50;90.60;;;;;;5096249;28;20032;-77
2021/08/27 00:24:12;;;;;;;5.45;1.98;;;13.60;90.60;;;;;;5104123;28;20036;-75
2021/08/27 00:26:38;;;;;;;6.45;2.20;;;13.60;90.50;;;;;;5089634;28;20090;-78
2021/08/27 00:29:04;;;;;;;4.10;2.28;;;13.70;90.40;;;;;;5085066;28;20491;-77
2021/08/27 00:31:30;;;;;;;8.82;2.72;;;13.70;90.40;;;;;;5087572;28;20031;-76
2021/08/27 00:33:56;;;;;;;7.15;2.80;;;13.80;90.30;;;;;;5105320;28;20043;-78
2021/08/27 00:36:21;;;;;;;8.10;3.08;;;13.80;90.20;;;;;;5081497;28;20448;-76
2021/08/27 00:38:47;;;;;;;5.97;2.67;;;13.80;90.20;;;;;;5095483;28;20025;-75
2021/08/27 00:41:13;;;;;;;6.93;2.10;;;13.80;90.20;;;;;;5105954;28;20502;-77
2021/08/27 00:43:39;;;;;;;7.05;1.92;;;13.80;90.10;;;;;;5105837;28;20028;-77
2021/08/27 00:46:05;;;;;;;6.00;1.85;;;13.90;90.10;;;;;;5114814;28;20067;-80
2021/08/27 00:48:31;;;;;;;3.97;1.25;;;13.90;90.10;;;;;;5107455;28;20020;-75
2021/08/27 00:50:57;;;;;;;3.45;1.52;;;13.90;90.10;;;;;;5111634;28;20147;-78
2021/08/27 00:53:23;;;;;;;7.50;3.10;;;13.90;90.10;;;;;;5091941;28;20102;-79
2021/08/27 00:55:48;;;;;;;10.13;3.22;;;13.90;90.10;;;;;;5094395;28;20020;-77
2021/08/27 00:58:14;;;;;;;6.45;2.50;;;13.90;90.10;;;;;;5103422;28;20055;-78
2021/08/27 01:00:42;;;;;;;6.07;2.55;;;13.80;90.00;;;;;;5109279;28;20116;-77
2021/08/27 01:03:10;;;;;;;7.53;2.35;;;13.70;90.10;;;;;;5107544;28;20028;-76
2021/08/27 01:05:41;;;;;;;5.63;2.22;;;13.60;90.20;;;;;;5113573;28;20031;-77
2021/08/27 01:08:30;;;;;;;7.72;1.80;;;13.60;90.30;;;;;;5104372;28;20028;-79
2021/08/27 01:11:24;;;;;;;7.70;1.20;;;13.50;90.30;;;;;;5099961;28;20538;-75
2021/08/27 01:14:01;;;;;;;4.57;1.20;;;13.40;90.30;;;;;;5101350;28;20040;-76
2021/08/27 01:16:33;;;;;;;5.10;1.17;;;13.30;90.40;;;;;;5111064;28;20055;-77
2021/08/27 01:19:24;;;;;;;4.53;1.23;;;13.30;90.50;;;;;;5109436;28;20026;-77
2021/08/27 01:22:05;;;;;;;7.20;2.20;;;13.20;90.60;;;;;;5100710;28;20384;-74
2021/08/27 01:24:32;;;;;;;5.60;2.40;;;13.10;90.70;;;;;;5099691;28;20060;-75
2021/08/27 01:27:03;;;;;;;6.38;2.35;;;13.10;90.80;;;;;;5104980;28;20388;-75
2021/08/27 01:29:41;;;;;;;4.82;1.90;;;13.10;90.80;;;;;;5105254;28;20028;-78
2021/08/27 01:32:12;;;;;;;7.40;2.97;;;13.00;90.90;;;;;;5110391;28;20024;-80
2021/08/27 01:34:41;;;;;;;5.95;2.55;;;13.00;90.90;;;;;;5111741;28;20024;-75
2021/08/27 01:37:15;;;;;;;4.35;1.50;;;13.00;90.90;;;;;;5111088;28;20062;-80
2021/08/27 01:39:45;;;;;;;5.38;1.90;;;13.10;90.90;;;;;;5122776;27;20058;-75
2021/08/27 01:42:15;;;;;;;4.13;1.30;;;13.20;90.90;;;;;;5106938;28;20031;-81
2021/08/27 01:44:44;;;;;;;5.20;1.10;;;13.20;90.90;;;;;;5114071;28;20123;-75
2021/08/27 01:47:12;;;;;;;5.32;0.93;;;13.30;90.90;;;;;;5114698;28;20020;-78
2021/08/27 01:49:39;;;;;;;6.70;1.67;;;13.40;90.80;;;;;;5105785;28;20039;-77
2021/08/27 01:52:07;;;;;;;4.57;0.98;;;13.40;90.70;;;;;;5096455;28;20024;-76
2021/08/27 01:54:34;;;;;;;5.78;1.13;;;13.50;90.70;;;;;;5116053;28;20589;-74
2021/08/27 01:57:00;;;;;;;6.95;1.13;;;13.60;90.60;;;;;;5119312;28;20043;-75
2021/08/27 01:59:33;;;;;;;6.82;1.00;;;13.60;90.60;;;;;;5118268;28;20020;-76
2021/08/27 02:02:00;;;;;;;;;;;13.60;90.60;;;;;;5119396;28;20077;-75
2021/08/27 02:04:27;;;;;;;4.53;1.10;;;13.60;90.50;;;;;;5118105;28;20002;-75
2021/08/27 02:06:52;;;;;;;5.45;1.10;;;13.60;90.50;;;;;;5114732;28;20020;-75
2021/08/27 02:09:19;;;;;;;5.13;1.45;;;13.70;90.40;;;;;;5114531;28;20389;-75
2021/08/27 02:11:46;;;;;;;4.85;1.00;;;13.70;90.40;;;;;;5114605;28;20030;-76
2021/08/27 02:14:14;;;;;;;3.35;0.85;;;13.80;90.30;;;;;;5114361;28;20031;-76
2021/08/27 02:16:40;;;;;;;5.88;1.10;;;13.70;90.20;;;;;;5114180;28;20063;-75
2021/08/27 02:19:06;;;;;;;5.30;1.38;;;13.80;90.30;;;;;;5115243;28;20059;-75
2021/08/27 02:21:38;;;;;;;2.92;0.95;;;13.80;90.20;;;;;;5115275;28;20063;-76
2021/08/27 02:24:11;;;;;;;4.53;1.05;;;13.80;90.20;;;;;;5115494;27;20383;-76
2021/08/27 02:26:38;;;;;;;4.70;1.00;;;13.80;90.20;;;;;;5114891;27;20019;-77
2021/08/27 02:29:04;;;;;;;5.07;1.10;;;13.80;90.20;;;;;;5113780;28;20095;-76
2021/08/27 02:31:32;;;;;;;3.58;0.93;;;13.80;90.20;;;;;;5113532;28;20027;-76
2021/08/27 02:33:59;;;;;;;10.38;1.15;;;13.80;90.20;;;;;;5113834;28;20031;-75
2021/08/27 02:36:26;;;;;;;4.43;0.80;;;13.90;90.20;;;;;;5115411;28;20020;-76
2021/08/27 02:38:55;;;;;;;3.47;0.90;;;13.90;90.10;;;;;;5115164;28;20467;-75
2021/08/27 02:41:21;;;;;;;3.25;0.88;;;13.90;90.10;;;;;;5113676;28;20384;-76
2021/08/27 02:43:47;;;;;;;5.85;0.95;;;13.90;90.10;;;;;;5096445;28;20036;-77
2021/08/27 02:46:13;;;;;;;9.75;0.90;;;13.90;90.20;;;;;;5113465;28;20079;-76
2021/08/27 02:48:38;;;;;;;2.97;0.70;;;13.80;90.30;;;;;;5096489;28;20019;-78
2021/08/27 02:51:16;;;;;;;3.78;0.82;;;13.70;90.30;;;;;;5113663;28;20459;-75
2021/08/27 02:53:49;;;;;;;5.78;0.98;;;13.60;90.40;;;;;;5113579;28;20059;-75
2021/08/27 02:56:22;;;;;;;4.65;0.85;;;13.50;90.50;;;;;;5113544;28;20027;-78
2021/08/27 02:58:50;;;;;;;5.38;0.93;;;13.50;90.60;;;;;;5096222;28;20027;-76
2021/08/27 03:01:29;;;;;;;5.88;0.80;;;13.40;90.70;;;;;;5113338;28;20027;-77
2021/08/27 03:04:00;;;;;;;5.60;1.05;;;13.40;90.80;;;;;;5120567;28;20102;-74
2021/08/27 03:06:33;;;;;;;3.83;1.10;;;13.30;90.90;;;;;;5112674;28;20352;-77
2021/08/27 03:09:05;;;;;;;4.90;1.35;;;13.20;90.90;;;;;;5114303;28;20048;-75
2021/08/27 03:11:40;;;;;;;5.75;1.08;;;13.20;91.00;;;;;;5112595;28;20076;-75
2021/08/27 03:14:14;;;;;;;4.85;1.02;;;13.10;91.10;;;;;;5113017;28;20111;-75
2021/08/27 03:16:43;;;;;;;5.28;1.08;;;13.00;91.20;;;;;;5112031;28;20867;-74
2021/08/27 03:19:54;;;;;;;3.65;0.90;;;13.00;91.20;;;;;;5113995;28;20055;-76
2021/08/27 03:22:24;;;;;;;4.15;0.82;;;12.90;91.30;;;;;;5050707;28;20029;-75
2021/08/27 03:25:12;;;;;;;4.43;0.82;;;12.90;91.50;;;;;;5103219;28;20444;-75
2021/08/27 03:27:45;;;;;;;2.08;0.70;;;12.90;91.50;;;;;;5112320;28;20110;-77
2021/08/27 03:30:20;;;;;;;6.70;1.30;;;12.90;91.50;;;;;;5107972;28;20023;-76
2021/08/27 03:32:52;;;;;;;2.60;0.70;;;12.80;91.60;;;;;;5113105;28;20035;-75
2021/08/27 03:35:20;;;;;;;6.68;1.23;;;12.80;91.60;;;;;;5112277;28;20482;-75
2021/08/27 03:37:48;;;;;;;5.07;1.40;;;12.80;91.60;;;;;;5113382;28;20043;-75
2021/08/27 03:40:15;;;;;;;8.00;1.67;;;12.80;91.70;;;;;;5113380;28;20027;-76
2021/08/27 03:42:41;;;;;;;5.20;1.38;;;12.80;91.70;;;;;;5112844;28;20028;-77
2021/08/27 03:45:09;;;;;;;4.85;1.35;;;12.70;91.70;;;;;;5112850;28;20050;-75
2021/08/27 03:47:36;;;;;;;5.25;1.05;;;12.70;91.80;;;;;;5113914;28;20026;-75
2021/08/27 03:50:03;;;;;;;4.03;1.00;;;12.70;91.80;;;;;;5113525;27;20027;-77
2021/08/27 03:52:29;;;;;;;4.68;1.02;;;12.70;91.80;;;;;;5112960;28;20020;-80
2021/08/27 03:54:56;;;;;;;6.07;1.08;;;12.70;91.90;;;;;;5111507;28;20035;-77
2021/08/27 03:57:25;;;;;;;7.32;1.10;;;12.60;91.90;;;;;;5091081;28;20032;-75
2021/08/27 03:59:50;;;;;;;7.55;1.65;;;12.60;91.90;;;;;;5103123;28;20217;-76
2021/08/27 04:02:16;;;;;;;4.38;1.20;;;12.60;92.00;;;;;;5111808;28;20447;-76
2021/08/27 04:04:41;;;;;;;5.40;1.35;;;12.70;92.00;;;;;;5110746;28;20043;-75
2021/08/27 04:07:07;;;;;;;5.47;1.20;;;12.70;92.00;;;;;;5111803;28;20463;-77
2021/08/27 04:09:34;;;;;;;7.10;1.00;;;12.70;91.90;;;;;;5128077;27;20034;-76
2021/08/27 04:12:03;;;;;;;4.95;1.10;;;12.70;91.90;;;;;;5111785;28;20016;-75
2021/08/27 04:14:29;;;;;;;6.03;1.55;;;12.80;91.90;;;;;;5111377;28;20364;-79
2021/08/27 04:16:55;;;;;;;6.65;2.10;;;12.80;91.90;;;;;;5094223;28;20047;-74
2021/08/27 04:19:21;;;;;;;8.93;3.53;;;12.90;91.90;;;;;;5112674;28;20030;-75
2021/08/27 04:21:47;;;;;;;11.70;3.13;;;12.90;91.80;;;;;;5111983;28;20107;-75
2021/08/27 04:24:13;;;;;;;9.75;2.38;;;13.00;91.80;;;;;;5111577;28;20606;-76
2021/08/27 04:26:39;;;;;;;13.25;2.95;;;13.00;91.80;;;;;;5110839;28;20803;-75
2021/08/27 04:29:05;;;;;;;13.13;2.03;;;13.00;91.80;;;;;;5112608;28;20039;-75
2021/08/27 04:31:31;;;;;;;9.70;1.77;;;12.90;91.80;;;;;;5094196;28;20448;-83
2021/08/27 04:33:57;;;;;;;9.35;1.73;;;12.90;91.80;;;;;;5112007;28;20032;-77
2021/08/27 04:36:22;;;;;;;11.18;2.40;;;13.00;91.80;;;;;;5110928;28;20475;-75
2021/08/27 04:38:50;;;;;;;12.23;2.50;;;13.00;91.80;;;;;;5110622;28;20504;-75
2021/08/27 04:41:16;;;;;;;8.95;1.80;;;13.00;91.80;;;;;;5112631;28;20027;-76
2021/08/27 04:43:42;;;;;;;8.60;3.25;;;13.10;91.80;;;;;;5112244;28;20027;-76
2021/08/27 04:46:10;;;;;;;12.50;4.25;;;13.10;91.70;;;;;;5094311;28;20040;-77
2021/08/27 04:48:36;;;;;;;13.32;4.35;;;13.20;91.70;;;;;;5112249;28;20028;-77
2021/08/27 04:51:02;;;;;;;7.40;3.55;;;13.20;91.70;;;;;;5096015;28;20030;-75
2021/08/27 04:53:28;;;;;;;6.35;2.22;;;13.30;91.60;;;;;;5073911;28;20028;-75
2021/08/27 04:55:54;;;;;;;6.35;1.42;;;13.40;91.60;;;;;;5091606;28;20033;-76
2021/08/27 04:58:21;;;;;;;10.65;2.03;;;13.40;91.50;;;;;;5090299;28;20105;-76
2021/08/27 05:00:47;;;;;;;4.90;1.60;;;13.40;91.40;;;;;;5089834;28;20050;-77
2021/08/27 05:03:13;;;;;;;6.50;2.10;;;13.50;91.40;;;;;;5091979;28;20032;-76
2021/08/27 05:05:38;;;;;;;6.05;2.30;;;13.50;91.30;;;;;;5100873;28;20071;-80
2021/08/27 05:08:04;;;;;;;6.30;2.55;;;13.50;91.30;;;;;;5111692;28;20375;-76
2021/08/27 05:10:30;;;;;;;9.93;2.55;;;13.60;91.30;;;;;;5110624;28;20494;-76
2021/08/27 05:12:56;;;;;;;6.07;2.20;;;13.70;91.30;;;;;;5093379;28;20024;-76
2021/08/27 05:15:21;;;;;;;4.88;2.55;;;13.70;91.20;;;;;;5111416;27;20054;-76
2021/08/27 05:17:47;;;;;;;6.53;2.25;;;13.80;91.10;;;;;;5114442;28;20031;-76
2021/08/27 05:20:13;;;;;;;8.93;2.30;;;13.90;91.00;;;;;;5097699;28;20036;-75
2021/08/27 05:22:38;;;;;;;6.30;1.63;;;14.00;90.90;;;;;;5115126;28;20016;-79
2021/08/27 05:25:05;;;;;;;5.07;2.00;;;14.00;90.80;;;;;;5114388;28;20047;-75
2021/08/27 05:27:30;;;;;;;7.35;2.38;;;14.10;90.70;;;;;;5114965;28;20031;-75
2021/08/27 05:29:56;;;;;;;12.15;3.60;;;14.20;90.60;;;;;;5113856;28;20036;-76
2021/08/27 05:32:22;;;;;;;11.32;3.00;;;14.30;90.50;;;;;;5115666;28;20055;-76
2021/08/27 05:34:47;;;;;;;7.43;2.60;;;14.30;90.40;;;;;;5094569;28;20036;-79
2021/08/27 05:37:13;;;;;;;12.02;3.38;;;14.30;90.40;;;;;;5114437;28;20031;-75
2021/08/27 05:39:39;;;;;;;12.45;2.88;;;14.30;90.40;;;;;;5125541;27;20028;-77
2021/08/27 05:42:05;;;;;;;13.50;3.28;;;14.30;90.30;;;;;;5112618;28;20131;-76
2021/08/27 05:44:31;;;;;;;8.00;2.53;;;14.30;90.30;;;;;;5107848;28;20097;-82
2021/08/27 05:46:56;;;;;;;10.75;2.45;;;14.30;90.40;;;;;;5107613;28;20048;-76
2021/08/27 05:49:23;;;;;;;9.60;2.08;;;14.30;90.40;;;;;;5094676;28;20036;-76
2021/08/27 05:51:49;;;;;;;9.38;1.90;;;14.40;90.40;;;;;;5101163;28;20020;-76
2021/08/27 05:54:15;;;;;;;7.03;1.33;;;14.40;90.40;;;;;;5110105;28;20102;-75
2021/08/27 05:56:41;;;;;;;8.90;1.20;;;14.50;90.30;;;;;;5096280;28;20039;-76
2021/08/27 05:59:06;;;;;;;8.52;1.00;;;14.60;90.30;;;;;;5094395;28;20028;-74
2021/08/27 06:01:32;;;;;;;8.38;1.13;;;15.00;90.40;;;;;;5059398;28;20032;-75
2021/08/27 06:03:58;;;;;;;7.50;0.85;;;16.20;89.00;;;;;;5092897;28;20498;-75
2021/08/27 06:06:23;;;;;;;7.88;0.80;;;17.30;84.70;;;;;;5093342;28;20384;-76
2021/08/27 06:08:49;;;;;;;7.95;1.17;;;17.40;82.00;;;;;;5076047;28;20043;-76
2021/08/27 06:11:15;;;;;;;5.15;1.30;;;17.20;81.70;;;;;;5102874;28;20035;-77
2021/08/27 06:13:40;;;;;;;6.38;1.20;;;16.90;82.10;;;;;;5104307;28;20031;-77
2021/08/27 06:16:06;;;;;;;5.43;1.10;;;16.70;82.80;;;;;;5089302;28;20074;-76
2021/08/27 06:18:32;;;;;;;8.48;1.60;;;16.50;83.50;;;;;;5107409;28;20063;-77
2021/08/27 06:20:57;;;;;;;6.88;1.67;;;16.30;84.00;;;;;;5094813;28;20035;-77
2021/08/27 06:23:24;;;;;;;6.75;1.20;;;16.20;84.90;;;;;;5110377;28;20038;-77
2021/08/27 06:25:50;;;;;;;8.15;1.15;;;16.10;85.20;;;;;;5118343;28;20099;-81
2021/08/27 06:28:16;;;;;;;6.63;1.42;;;16.10;85.40;;;;;;5120251;28;20059;-76
2021/08/27 06:30:44;;;;;;;9.18;1.35;;;16.10;85.60;;;;;;5118070;28;20077;-76
2021/08/27 06:33:10;;;;;;;11.77;1.42;;;16.20;85.60;;;;;;5118319;28;20437;-75
2021/08/27 06:35:36;;;;;;;4.80;1.17;;;16.30;85.40;;;;;;5108709;28;20180;-78
2021/08/27 06:40:47;;;;;;;4.75;0.88;;;16.50;85.00;;;;;;5111973;28;20161;-77
2021/08/27 06:43:13;;;;;;;5.68;1.13;;;16.40;84.90;;;;;;5111131;28;20063;-77
2021/08/27 06:45:38;;;;;;;7.15;1.60;;;16.40;85.30;;;;;;5096914;28;20121;-76
2021/08/27 06:48:05;;;;;;;7.05;1.15;;;16.40;85.00;;;;;;5075714;28;20386;-76
2021/08/27 06:50:30;;;;;;;4.47;1.65;;;16.30;85.10;;;;;;5108481;28;20024;-75
2021/08/27 06:52:56;;;;;;;7.32;1.70;;;16.40;85.10;;;;;;5112330;28;20032;-76
2021/08/27 06:55:22;;;;;;;6.38;2.13;;;16.50;85.10;;;;;;5112524;28;20486;-76
2021/08/27 06:57:48;;;;;;;7.10;2.85;;;16.50;84.90;;;;;;5113074;28;20035;-76
2021/08/27 07:00:15;;;;;;;5.03;2.63;;;16.60;84.80;;;;;;5082290;28;20032;-76
2021/08/27 07:02:43;;;;;;;8.52;2.58;;;16.80;84.80;;;;;;5093795;28;20024;-77
2021/08/27 07:05:10;;;;;;;11.50;2.55;;;16.90;84.10;;;;;;5083792;28;20040;-76
2021/08/27 07:07:36;;;;;;;7.13;2.38;;;17.00;83.90;;;;;;5111945;28;20103;-77
2021/08/27 07:10:02;;;;;;;7.53;2.45;;;17.20;83.40;;;;;;5111880;28;20028;-77
2021/08/27 07:12:28;;;;;;;5.78;2.05;;;17.40;83.10;;;;;;5092762;28;20066;-76
2021/08/27 07:14:54;;;;;;;6.68;1.30;;;17.50;82.70;;;;;;5071333;28;20075;-79
2021/08/27 07:17:20;;;;;;;9.35;1.92;;;17.60;82.40;;;;;;5111823;28;20031;-76
2021/08/27 07:19:47;;;;;;;6.10;2.08;;;17.90;82.10;;;;;;5111549;28;20432;-78
2021/08/27 07:22:13;;;;;;;6.07;1.40;;;18.10;81.70;;;;;;5108450;28;20073;-77
2021/08/27 07:24:39;;;;;;;6.75;1.70;;;18.50;80.80;;;;;;5113149;28;20031;-78
2021/08/27 07:27:05;;;;;;;3.90;1.02;;;19.20;80.40;;;;;;5112767;28;20031;-82
2021/08/27 07:29:31;;;;;;;6.57;2.10;;;20.40;77.90;;;;;;5112158;28;20028;-77
2021/08/27 07:31:57;;;;;;;5.82;1.30;;;21.10;74.00;;;;;;5111682;28;20028;-80
2021/08/27 07:34:23;;;;;;;5.93;2.60;;;21.20;72.30;;;;;;5111798;28;20031;-77
2021/08/27 07:36:48;;;;;;;5.70;2.35;;;20.90;72.00;;;;;;5077864;28;20080;-78
2021/08/27 07:39:14;;;;;;;8.30;3.20;;;20.70;72.40;;;;;;5111197;28;20208;-76
2021/08/27 07:41:40;;;;;;;7.57;1.77;;;20.40;72.90;;;;;;5109779;28;20395;-76
2021/08/27 07:44:05;;;;;;;8.38;2.72;;;20.10;73.30;;;;;;5087395;28;20395;-75
2021/08/27 07:46:31;;;;;;;5.00;1.20;;;19.80;74.00;;;;;;5094343;28;20042;-75
2021/08/27 07:48:57;;;;;;;3.17;0.95;;;19.70;74.20;;;;;;5111553;28;20445;-80
2021/08/27 07:51:23;;;;;;;6.68;0.82;;;19.60;74.50;;;;;;5101012;28;20188;-75
2021/08/27 07:53:49;;;;;;;3.28;0.88;;;19.70;74.50;;;;;;5092175;28;20150;-76
2021/08/27 07:56:14;;;;;;;3.78;0.90;;;19.80;74.40;;;;;;5098929;28;20184;-76
2021/08/27 07:58:40;;;;;;;5.32;0.90;;;20.00;74.30;;;;;;5126211;27;20489;-79
2021/08/27 08:01:06;;;;;;;4.45;0.75;;;20.30;73.30;;;;;;5092729;28;20100;-77
2021/08/27 08:03:31;;;;;;;3.80;0.70;;;20.50;72.20;;;;;;5112574;28;20027;-76
2021/08/27 08:05:57;;;;;;;4.20;0.88;;;21.00;71.90;;;;;;5075990;28;20044;-76
2021/08/27 08:08:23;;;;;;;6.05;0.90;;;21.60;70.00;;;;;;5110600;28;20432;-77
2021/08/27 08:10:48;;;;;;;6.55;0.80;;;21.80;68.60;;;;;;5109833;28;20038;-77
2021/08/27 08:13:14;;;;;;;4.47;0.75;;;21.80;68.80;;;;;;5089947;28;20114;-76
2021/08/27 08:15:39;;;;;;;3.88;0.80;;;21.60;67.90;;;;;;5089796;28;20130;-76
2021/08/27 08:18:05;;;;;;;3.58;0.70;;;21.50;68.30;;;;;;5097242;28;20059;-76
2021/08/27 08:20:31;;;;;;;3.92;0.75;;;21.40;68.60;;;;;;5095576;28;20028;-75
2021/08/27 08:22:57;;;;;;;4.30;0.77;;;21.30;68.40;;;;;;5094758;28;20456;-76
2021/08/27 08:25:23;;;;;;;4.03;0.65;;;21.20;67.90;;;;;;5090457;28;20189;-76
2021/08/27 08:27:49;;;;;;;3.47;0.60;;;21.50;68.00;;;;;;5101474;28;20020;-76
2021/08/27 08:30:16;;;;;;;3.30;0.60;;;21.60;67.80;;;;;;5104820;28;20029;-77
2021/08/27 08:32:41;;;;;;;3.58;0.98;;;21.70;67.40;;;;;;5100284;28;20083;-77
2021/08/27 08:35:07;;;;;;;2.35;0.70;;;21.80;67.20;;;;;;5110021;28;20028;-77
2021/08/27 08:37:37;;;;;;;5.20;0.80;;;21.90;67.00;;;;;;5096473;28;20043;-77
2021/08/27 08:40:03;;;;;;;4.13;0.70;;;21.80;67.10;;;;;;5102851;28;20024;-79
2021/08/27 08:42:29;;;;;;;3.22;0.70;;;22.00;66.60;;;;;;5088299;28;20035;-76
2021/08/27 08:44:55;;;;;;;2.70;0.70;;;22.20;66.30;;;;;;5109206;28;20407;-76
2021/08/27 08:47:21;;;;;;;4.35;0.70;;;22.50;65.90;;;;;;5092723;28;20080;-76
2021/08/27 08:49:48;;;;;;;8.13;0.70;;;22.60;65.50;;;;;;5110307;28;20031;-76
2021/08/27 08:52:22;;;;;;;4.63;0.60;;;22.30;65.20;;;;;;5109258;28;20076;-76
2021/08/27 08:54:51;;;;;;;3.42;0.70;;;22.10;64.90;;;;;;5116871;28;20020;-76
2021/08/27 08:57:21;;;;;;;3.25;0.77;;;22.30;65.00;;;;;;5110650;28;20028;-76
2021/08/27 08:59:46;;;;;;;2.35;0.60;;;22.70;64.10;;;;;;5098496;28;20483;-76
2021/08/27 09:02:12;;;;;;;2.75;0.50;;;23.40;63.10;;;;;;5115834;28;20020;-77
2021/08/27 09:04:38;;;;;;;2.53;0.70;;;24.10;61.20;;;;;;5106735;28;20031;-76
2021/08/27 09:07:05;;;;;;;4.03;0.57;;;24.30;60.40;;;;;;5108249;28;20032;-76
2021/08/27 09:09:35;;;;;;;4.68;0.50;;;24.30;59.40;;;;;;5093476;28;20114;-75
2021/08/27 09:12:17;;;;;;;3.90;0.50;;;24.10;59.90;;;;;;5099483;28;20036;-75
2021/08/27 09:14:53;;;;;;;3.85;0.55;;;23.50;60.00;;;;;;5102772;28;20131;-75
2021/08/27 09:17:27;;;;;;;2.05;0.60;;;22.70;61.10;;;;;;5102993;28;20032;-75
2021/08/27 09:19:53;;;;;;;2.25;0.40;;;22.00;62.70;;;;;;5102726;28;20288;-74
2021/08/27 09:22:20;;;;;;;2.65;0.50;;;21.50;63.70;;;;;;5107048;28;20027;-75
2021/08/27 09:25:07;;;;;;;2.75;0.40;;;21.30;64.10;;;;;;5099007;28;20040;-74
2021/08/27 09:27:35;;;;;;;1.77;0.40;;;21.30;64.80;;;;;;5109840;28;20032;-75
2021/08/27 09:30:08;;;;;;;3.22;0.50;;;21.40;65.20;;;;;;5102810;28;20032;-75
2021/08/27 09:32:34;;;;;;;2.38;0.50;;;21.80;64.80;;;;;;5092971;28;20032;-75
2021/08/27 09:35:16;;;;;;;4.80;0.50;;;22.00;64.50;;;;;;5124443;27;20552;-74
2021/08/27 09:37:43;;;;;;;2.65;0.40;;;22.10;64.30;;;;;;5100220;28;20482;-75
2021/08/27 09:40:12;;;;;;;1.65;0.40;;;22.10;64.20;;;;;;5102878;28;20037;-75
2021/08/27 09:42:57;;;;;;;2.55;0.40;;;22.10;64.00;;;;;;5094817;28;20046;-75
2021/08/27 09:45:35;;;;;;;2.40;0.40;;;22.00;62.80;;;;;;5101997;28;20036;-75
2021/08/27 09:48:04;;;;;;;3.80;0.40;;;21.90;63.30;;;;;;5109027;28;20023;-74
2021/08/27 09:50:31;;;;;;;3.22;0.50;;;22.10;63.30;;;;;;5102609;28;20023;-74
2021/08/27 09:53:02;;;;;;;2.55;0.30;;;22.70;62.60;;;;;;5114259;27;20024;-75
2021/08/27 09:55:30;;;;;;;3.13;0.40;;;23.50;60.90;;;;;;5107096;27;20024;-75
2021/08/27 09:58:11;;;;;;;1.27;0.25;;;23.70;60.00;;;;;;5104610;28;20027;-75
2021/08/27 10:00:39;;;;;;;1.95;0.35;;;23.40;60.00;;;;;;5114043;28;20016;-76
2021/08/27 10:03:26;;;;;;;2.63;0.35;;;23.60;60.80;;;;;;5107648;28;20431;-75
2021/08/27 10:05:55;;;;;;;1.70;0.40;;;24.10;59.10;;;;;;5108480;28;20035;-76
2021/08/27 10:08:28;;;;;;;4.82;0.40;;;24.60;57.70;;;;;;5086797;28;20391;-76
2021/08/27 10:11:18;;;;;;;2.38;0.40;;;25.20;56.10;;;;;;5112637;28;20466;-76
2021/08/27 10:13:44;;;;;;;2.85;0.73;;;25.40;56.10;;;;;;5112045;28;20012;-76
2021/08/27 10:16:11;;;;;;;2.60;0.50;;;25.00;54.60;;;;;;5113919;28;20057;-75
2021/08/27 10:18:37;;;;;;;3.35;0.50;;;24.30;55.70;;;;;;5060835;28;20043;-76
2021/08/27 10:21:04;;;;;;;2.22;0.43;;;23.90;56.90;;;;;;5108284;28;20031;-76
2021/08/27 10:23:30;;;;;;;2.42;0.50;;;23.70;57.80;;;;;;5110678;28;20019;-77
2021/08/27 10:25:58;;;;;;;2.70;0.50;;;24.00;58.00;;;;;;5096869;28;20039;-77
2021/08/27 10:28:29;;;;;;;2.45;0.70;;;24.50;57.60;;;;;;5105497;28;20089;-82
2021/08/27 10:30:57;;;;;;;1.92;0.60;;;24.50;57.20;;;;;;5108582;28;20468;-78
2021/08/27 10:33:56;;;;;;;3.08;0.50;;;24.60;57.40;;;;;;5108177;28;20499;-80
2021/08/27 10:36:21;;;;;;;2.10;0.70;;;25.10;56.20;;;;;;5110247;28;20380;-80
2021/08/27 10:38:51;;;;;;;2.30;0.52;;;25.50;55.40;;;;;;5112267;28;20034;-77
2021/08/27 10:41:19;;;;;;;2.92;0.57;;;25.90;54.90;;;;;;5111773;28;20110;-78
2021/08/27 10:44:02;;;;;;;4.07;0.47;;;26.00;54.30;;;;;;5112042;28;20063;-78
2021/08/27 10:46:47;;;;;;;2.05;0.40;;;26.30;53.30;;;;;;5110354;28;20124;-78
2021/08/27 10:49:18;;;;;;;1.40;0.40;;;26.70;53.00;;;;;;5114280;28;20645;-78
2021/08/27 10:51:45;;;;;;;1.85;0.60;;;26.80;52.10;;;;;;5110620;28;20376;-76
2021/08/27 10:54:13;;;;;;;3.10;0.47;;;26.90;51.60;;;;;;5103539;28;20028;-77
2021/08/27 10:56:51;;;;;;;3.38;0.73;;;27.10;51.30;;;;;;5091370;28;20069;-79
2021/08/27 10:59:20;;;;;;;2.08;0.52;;;27.20;50.50;;;;;;5108034;28;20352;-78
2021/08/27 11:01:49;;;;;;;2.40;0.50;;;27.40;50.80;;;;;;5109140;28;20160;-78
2021/08/27 11:04:26;;;;;;;2.70;0.50;;;27.60;50.00;;;;;;5103562;28;20128;-78
2021/08/27 11:06:57;;;;;;;3.45;0.45;;;27.70;48.90;;;;;;5109784;28;20017;-77
2021/08/27 11:09:30;;;;;;;3.13;0.50;;;27.60;49.10;;;;;;5112237;28;20030;-78
2021/08/27 11:12:22;;;;;;;3.92;0.68;;;27.50;49.60;;;;;;5109091;28;20028;-77
2021/08/27 11:14:52;;;;;;;2.83;0.55;;;26.90;49.10;;;;;;5106867;28;20523;-76
2021/08/27 11:17:19;;;;;;;4.75;0.90;;;26.20;50.90;;;;;;5107700;28;20048;-77
2021/08/27 11:19:49;;;;;;;3.15;0.60;;;26.20;52.40;;;;;;5107794;28;20039;-76
2021/08/27 11:22:22;;;;;;;4.38;0.80;;;26.60;51.40;;;;;;5096597;28;20490;-76
2021/08/27 11:25:11;;;;;;;3.90;0.73;;;26.50;50.60;;;;;;5110962;28;20027;-76
2021/08/27 11:27:38;;;;;;;3.05;0.60;;;26.30;51.00;;;;;;5102569;28;20023;-79
2021/08/27 11:30:39;;;;;;;2.38;0.63;;;25.80;52.20;;;;;;5108943;28;20031;-76
2021/08/27 11:33:26;;;;;;;3.17;0.40;;;25.30;52.90;;;;;;5072753;28;20032;-77
2021/08/27 11:35:55;;;;;;;3.95;0.70;;;24.70;54.00;;;;;;5102540;28;20015;-76
2021/08/27 11:38:23;;;;;;;3.22;0.70;;;24.30;55.60;;;;;;5104985;28;20016;-78
2021/08/27 11:40:49;;;;;;;3.40;0.60;;;24.00;55.90;;;;;;5096830;28;20677;-76
2021/08/27 11:43:15;;;;;;;3.97;0.85;;;23.80;56.10;;;;;;5090980;28;20032;-77
2021/08/27 11:45:42;;;;;;;3.35;0.77;;;23.60;56.80;;;;;;5093439;28;20092;-77
2021/08/27 11:48:11;;;;;;;3.03;0.80;;;23.40;56.80;;;;;;5107578;28;20054;-77
2021/08/27 11:50:50;;;;;;;4.03;0.80;;;23.30;57.30;;;;;;5102033;28;20027;-80
2021/08/27 11:53:16;;;;;;;2.75;0.63;;;23.00;58.30;;;;;;5112256;28;20047;-75
2021/08/27 11:55:47;;;;;;;2.10;0.47;;;22.70;59.40;;;;;;5108941;28;20514;-77
2021/08/27 11:58:13;;;;;;;3.63;0.88;;;22.40;60.50;;;;;;5104863;28;20036;-75
2021/08/27 12:00:43;;;;;;;4.72;0.70;;;22.10;63.40;;;;;;5109632;28;20434;-81
2021/08/27 12:03:11;;;;;;;3.47;0.70;;;21.50;66.20;;;;;;5112335;28;20058;-76
2021/08/27 12:05:38;;;;;;;3.38;0.57;;;21.10;68.40;;;;;;5106763;28;20103;-81
2021/08/27 12:08:06;;;;;;;4.60;0.70;;;21.00;69.80;;;;;;5110942;28;20019;-77
2021/08/27 12:10:37;;;;;;;4.45;0.80;;;21.00;70.90;;;;;;5112147;28;20054;-79
2021/08/27 12:13:06;;;;;;;3.47;1.10;;;21.30;71.40;;;;;;5111534;28;20054;-79
2021/08/27 12:15:39;;;;;;;3.05;1.33;;;21.60;70.80;;;;;;5110982;28;20047;-81
2021/08/27 12:18:11;;;;;;;3.97;0.90;;;21.70;71.00;;;;;;5111474;28;20014;-79
2021/08/27 12:20:36;;;;;;;3.95;1.02;;;21.90;70.20;;;;;;5113524;28;20039;-80
2021/08/27 12:23:16;;;;;;;3.35;0.70;;;22.10;69.60;;;;;;5112690;28;20020;-82
2021/08/27 12:25:46;;;;;;;2.83;0.60;;;22.30;69.10;;;;;;5111365;28;20020;-81
2021/08/27 12:28:14;;;;;;;2.88;0.70;;;22.50;68.30;;;;;;5100652;28;20028;-82
2021/08/27 12:30:50;;;;;;;3.72;0.80;;;22.70;67.40;;;;;;5090683;28;20110;-84
2021/08/27 12:33:17;;;;;;;3.80;0.60;;;22.90;66.50;;;;;;5091225;28;20028;-81
2021/08/27 12:35:43;;;;;;;2.42;0.57;;;23.00;66.10;;;;;;5096472;28;20360;-81
2021/08/27 12:38:10;;;;;;;1.95;0.40;;;23.20;65.90;;;;;;5110813;28;20031;-82
2021/08/27 12:40:36;;;;;;;3.53;0.52;;;23.20;63.90;;;;;;5110338;28;20032;-80
2021/08/27 12:43:09;;;;;;;3.55;0.60;;;23.20;63.50;;;;;;5108777;28;20105;-79
2021/08/27 12:45:55;;;;;;;2.92;0.40;;;23.10;63.80;;;;;;5109806;28;20487;-82
2021/08/27 12:48:29;;;;;;;3.22;0.80;;;23.20;64.20;;;;;;5110553;28;20032;-80
2021/08/27 12:51:00;;;;;;;2.58;0.50;;;23.30;63.70;;;;;;5109076;28;20024;-81
2021/08/27 12:53:36;;;;;;;3.08;0.70;;;23.20;63.10;;;;;;5109267;28;20031;-79
2021/08/27 12:56:16;;;;;;;3.10;0.70;;;23.30;63.30;;;;;;5108131;28;20030;-79
2021/08/27 12:58:50;;;;;;;3.05;0.60;;;23.40;63.10;;;;;;5102451;28;20155;-80